Time;durP1;ratioP1;P1;durP2;ratioP2;P2;SDS_P1;SDS_P2;PMS_P1;PMS_P2;Temp;Humidity;BMP_temperature;BMP_pressure;BME280_temperature;BME280_humidity;BME280_pressure;Samples;Min_cycle;Max_cycle;Signal;HPM_P1;HPM_P2
2021/04/15 00:00:29;;;;;;;3.10;1.70;;;;;;;18.41;61.63;103244.97;4952697;29;20166;-73
2021/04/15 00:02:58;;;;;;;2.88;1.50;;;;;;;18.43;61.69;103239.53;4952433;28;20031;-73
2021/04/15 00:05:27;;;;;;;3.80;1.80;;;;;;;18.41;61.49;103239.66;4952973;29;20031;-72
2021/04/15 00:07:53;;;;;;;3.97;1.55;;;;;;;18.42;61.80;103245.81;4951531;28;20046;-73
2021/04/15 00:10:20;;;;;;;3.47;1.85;;;;;;;18.42;61.61;103244.00;4951416;28;20027;-73
2021/04/15 00:12:45;;;;;;;2.85;1.73;;;;;;;18.41;61.88;103244.97;4953305;28;20107;-73
2021/04/15 00:15:14;;;;;;;3.05;1.85;;;;;;;18.42;61.62;103238.69;4951698;28;20476;-73
2021/04/15 00:17:39;;;;;;;2.83;1.63;;;;;;;18.41;61.89;103238.81;4952009;28;20043;-72
2021/04/15 00:20:07;;;;;;;3.40;1.80;;;;;;;18.42;61.58;103243.16;4933883;29;20031;-73
2021/04/15 00:22:32;;;;;;;3.22;1.50;;;;;;;18.41;61.65;103246.78;4950969;28;20027;-72
2021/04/15 00:25:03;;;;;;;4.05;1.55;;;;;;;18.40;62.03;103245.09;4950567;28;20039;-72
2021/04/15 00:27:28;;;;;;;2.53;1.48;;;;;;;18.41;61.93;103241.47;4951831;29;20043;-72
2021/04/15 00:29:54;;;;;;;2.85;1.63;;;;;;;18.40;61.94;103239.78;4951256;28;20039;-72
2021/04/15 00:32:19;;;;;;;2.58;1.50;;;;;;;18.41;61.96;103242.31;4951928;29;20043;-72
2021/04/15 00:34:44;;;;;;;3.00;1.60;;;;;;;18.39;62.00;103241.59;4919367;29;20045;-73
2021/04/15 00:37:10;;;;;;;2.05;1.30;;;;;;;18.39;62.10;103240.75;4951063;28;20031;-73
2021/04/15 00:39:36;;;;;;;2.78;1.63;;;;;;;18.38;61.90;103237.25;4951444;28;20043;-73
2021/04/15 00:42:02;;;;;;;2.85;1.60;;;;;;;18.38;61.65;103237.25;4951501;29;20160;-73
2021/04/15 00:44:27;;;;;;;2.30;1.30;;;;;;;18.38;61.75;103239.09;4951672;28;20454;-73
2021/04/15 00:46:56;;;;;;;2.70;1.50;;;;;;;18.38;61.69;103236.44;4951835;29;20063;-73
2021/04/15 00:49:29;;;;;;;2.88;1.35;;;;;;;18.37;61.22;103234.75;4951885;29;20039;-73
2021/04/15 00:51:58;;;;;;;2.70;1.35;;;;;;;18.38;61.79;103236.44;4951316;28;20035;-73
2021/04/15 00:54:47;;;;;;;3.65;1.58;;;;;;;18.34;61.58;103235.00;4933061;29;20039;-73
2021/04/15 00:57:17;;;;;;;3.05;1.63;;;;;;;18.35;61.42;103234.88;4951138;28;20063;-73
2021/04/15 00:59:43;;;;;;;2.10;1.30;;;;;;;18.36;61.37;103241.88;4951461;29;20082;-73
2021/04/15 01:02:12;;;;;;;1.88;1.35;;;;;;;18.36;61.54;103231.25;4950303;28;20051;-73
2021/04/15 01:04:38;;;;;;;2.15;1.30;;;;;;;18.38;61.22;103239.09;4950796;29;20039;-73
2021/04/15 01:07:04;;;;;;;3.25;1.48;;;;;;;18.38;61.38;103228.44;4951843;28;20395;-73
2021/04/15 01:09:29;;;;;;;2.15;1.48;;;;;;;18.38;61.57;103234.59;4949866;28;20062;-73
2021/04/15 01:12:05;;;;;;;2.90;1.75;;;;;;;18.38;61.53;103233.75;4934230;29;20475;-73
2021/04/15 01:14:49;;;;;;;2.97;1.70;;;;;;;18.38;61.64;103228.44;4949987;28;20045;-72
2021/04/15 01:17:26;;;;;;;3.42;1.58;;;;;;;18.38;61.59;103233.75;4932679;29;20465;-73
2021/04/15 01:20:06;;;;;;;3.13;1.52;;;;;;;18.35;61.59;103226.91;4951443;28;20439;-73
2021/04/15 01:22:56;;;;;;;2.83;1.60;;;;;;;18.37;61.40;103221.44;4951368;28;20533;-73
2021/04/15 01:25:25;;;;;;;2.30;1.40;;;;;;;18.37;61.34;103227.59;4950138;29;20065;-73
2021/04/15 01:28:04;;;;;;;2.80;1.60;;;;;;;18.37;61.30;103226.78;4950052;28;20042;-72
2021/04/15 01:30:40;;;;;;;2.70;1.52;;;;;;;18.36;61.35;103228.59;4949591;28;20046;-73
2021/04/15 01:33:08;;;;;;;3.15;1.70;;;;;;;18.36;61.20;103225.94;4950525;29;20027;-73
2021/04/15 01:35:56;;;;;;;3.08;1.63;;;;;;;18.36;61.55;103228.59;4948729;28;20495;-73
2021/04/15 01:38:36;;;;;;;3.53;1.73;;;;;;;18.34;61.55;103225.22;4948730;29;20059;-73
2021/04/15 01:41:11;;;;;;;2.33;1.60;;;;;;;18.35;61.37;103226.06;4950989;29;20027;-72
2021/04/15 01:43:41;;;;;;;2.63;1.52;;;;;;;18.34;61.53;103217.25;4949864;28;20031;-73
2021/04/15 01:46:08;;;;;;;2.53;1.30;;;;;;;18.35;61.08;103220.75;4931922;29;20062;-73
2021/04/15 01:48:50;;;;;;;3.05;1.40;;;;;;;18.33;61.08;103218.22;4945745;28;20051;-73
2021/04/15 01:51:23;;;;;;;3.00;1.65;;;;;;;18.34;61.16;103213.75;4940148;28;20023;-73
2021/04/15 01:54:05;;;;;;;2.33;1.38;;;;;;;18.33;61.32;103210.25;4948855;28;20110;-72
2021/04/15 01:56:36;;;;;;;2.25;1.50;;;;;;;18.33;60.98;103210.25;4951245;29;20501;-73
2021/04/15 01:59:10;;;;;;;2.03;1.13;;;;;;;18.32;61.03;103211.22;4948710;28;20589;-73
2021/04/15 02:01:42;;;;;;;2.07;1.10;;;;;;;18.32;61.46;103211.22;4950369;28;20124;-73
2021/04/15 02:04:12;;;;;;;2.10;1.40;;;;;;;18.33;61.16;103214.72;4946138;28;20030;-72
2021/04/15 02:06:44;;;;;;;2.80;1.38;;;;;;;18.32;60.92;103208.56;4950110;28;20486;-72
2021/04/15 02:09:13;;;;;;;3.25;1.40;;;;;;;18.33;61.04;103206.75;4931466;29;20035;-72
2021/04/15 02:11:48;;;;;;;2.35;1.50;;;;;;;18.32;60.76;103202.41;4949897;29;20101;-72
2021/04/15 02:14:18;;;;;;;2.65;1.52;;;;;;;18.32;60.67;103199.75;4949314;28;20039;-73
2021/04/15 02:16:48;;;;;;;2.60;1.60;;;;;;;18.31;60.84;103206.03;4933988;29;20031;-73
2021/04/15 02:19:23;;;;;;;3.30;1.50;;;;;;;18.30;60.75;103197.19;4949087;28;20035;-72
2021/04/15 02:22:03;;;;;;;2.22;1.50;;;;;;;18.31;60.61;103203.38;4950346;28;20042;-72
2021/04/15 02:24:37;;;;;;;2.17;1.33;;;;;;;18.30;60.46;103202.50;4948036;29;20114;-73
2021/04/15 02:27:16;;;;;;;3.00;1.60;;;;;;;18.29;60.25;103205.31;4949194;29;20035;-72
2021/04/15 02:29:49;;;;;;;2.30;1.30;;;;;;;18.30;60.12;103210.47;4948869;28;20039;-72
2021/04/15 02:32:30;;;;;;;2.22;1.48;;;;;;;18.27;60.13;103206.28;4949431;29;20599;-73
2021/04/15 02:35:00;;;;;;;1.98;1.30;;;;;;;18.30;60.03;103207.81;4950644;29;20097;-72
2021/04/15 02:37:49;;;;;;;2.38;1.58;;;;;;;18.26;60.07;103207.25;4937030;29;20062;-73
2021/04/15 02:40:20;;;;;;;2.28;1.40;;;;;;;18.28;60.10;103209.78;4948286;28;20027;-73
2021/04/15 02:42:47;;;;;;;2.60;1.38;;;;;;;18.29;60.14;103211.47;4949694;28;20063;-72
2021/04/15 02:45:38;;;;;;;1.48;1.10;;;;;;;18.26;60.56;103209.91;4948659;29;20096;-72
2021/04/15 02:48:09;;;;;;;2.40;1.48;;;;;;;18.29;60.45;103211.47;4944993;28;20047;-73
2021/04/15 02:50:36;;;;;;;2.22;1.23;;;;;;;18.29;60.39;103216.78;4949195;28;20035;-73
2021/04/15 02:53:16;;;;;;;3.05;1.60;;;;;;;18.28;60.46;103215.09;4931727;29;20078;-72
2021/04/15 02:55:52;;;;;;;2.38;1.60;;;;;;;18.26;60.30;103217.88;4946384;28;20038;-72
2021/04/15 02:58:49;;;;;;;2.17;1.58;;;;;;;18.25;60.34;103210.03;4932199;29;20098;-73
2021/04/15 03:01:18;;;;;;;2.17;1.30;;;;;;;18.27;60.15;103213.41;4942991;29;20042;-73
2021/04/15 03:03:48;;;;;;;1.70;1.10;;;;;;;18.27;59.89;103208.94;4949282;28;20219;-73
2021/04/15 03:06:20;;;;;;;2.97;1.50;;;;;;;18.26;59.92;103203.75;4949637;28;20043;-72
2021/04/15 03:08:49;;;;;;;1.80;1.17;;;;;;;18.26;60.13;103209.91;4948257;29;20035;-73
2021/04/15 03:11:20;;;;;;;2.10;1.50;;;;;;;18.26;59.93;103214.38;4948990;28;20118;-72
2021/04/15 03:13:56;;;;;;;2.63;1.30;;;;;;;18.25;59.65;103205.56;4931729;29;20094;-73
2021/04/15 03:16:26;;;;;;;2.10;1.30;;;;;;;18.26;59.71;103198.44;4946962;28;20492;-73
2021/04/15 03:18:52;;;;;;;1.92;1.20;;;;;;;18.26;59.59;103206.41;4950158;28;20110;-73
2021/04/15 03:21:17;;;;;;;2.28;1.27;;;;;;;18.25;59.68;103202.91;4953383;28;20114;-72
2021/04/15 03:23:55;;;;;;;2.42;1.33;;;;;;;18.23;59.73;103202.19;4952859;28;20039;-72
2021/04/15 03:26:39;;;;;;;2.13;1.40;;;;;;;18.23;59.70;103202.19;4932981;29;20031;-73
2021/04/15 03:29:10;;;;;;;2.17;1.42;;;;;;;18.23;59.86;103198.69;4954697;29;20035;-73
2021/04/15 03:31:44;;;;;;;1.80;1.10;;;;;;;18.24;59.99;103203.03;4952772;28;20047;-72
2021/04/15 03:34:38;;;;;;;2.47;1.23;;;;;;;18.22;60.48;103199.69;4947540;29;20031;-72
2021/04/15 03:37:04;;;;;;;;;;;;;;;18.18;60.37;103201.75;4942540;28;20047;-73
2021/04/15 03:39:35;;;;;;;2.50;1.30;;;;;;;18.22;60.44;103197.03;4946448;28;19996;-73
2021/04/15 03:42:10;;;;;;;1.83;1.20;;;;;;;18.22;60.20;103202.34;4936094;29;20126;-73
2021/04/15 03:44:44;;;;;;;3.25;1.20;;;;;;;18.21;60.59;103198.84;4951098;28;20035;-72
2021/04/15 03:47:21;;;;;;;1.80;1.17;;;;;;;18.20;60.52;103197.16;4953221;28;20122;-73
2021/04/15 03:49:50;;;;;;;3.45;1.40;;;;;;;18.22;60.59;103202.34;4951769;29;20059;-72
2021/04/15 03:52:40;;;;;;;1.55;1.20;;;;;;;18.19;60.37;103197.28;4951769;29;20475;-73
2021/04/15 03:55:27;;;;;;;2.58;1.23;;;;;;;18.18;60.78;103198.25;4950125;29;20043;-72
2021/04/15 03:57:57;;;;;;;1.85;1.23;;;;;;;18.22;60.67;103194.38;4952437;28;20066;-72
2021/04/15 04:00:38;;;;;;;2.85;1.20;;;;;;;18.19;60.57;103189.31;4951517;29;20027;-72
2021/04/15 04:03:08;;;;;;;2.22;1.55;;;;;;;18.20;60.64;103191.84;4935066;29;20050;-72
2021/04/15 04:05:44;;;;;;;2.85;1.25;;;;;;;18.20;60.48;103193.66;4952263;28;20050;-72
2021/04/15 04:08:16;;;;;;;2.42;1.25;;;;;;;18.20;60.37;103191.00;4952832;29;20122;-73
2021/04/15 04:10:47;;;;;;;2.20;1.10;;;;;;;18.18;60.33;103185.81;4951492;28;20123;-72
2021/04/15 04:13:37;;;;;;;1.90;1.13;;;;;;;18.17;60.38;103189.44;4935828;29;20049;-72
2021/04/15 04:16:20;;;;;;;1.55;1.10;;;;;;;18.18;60.26;103184.97;4935047;29;20053;-72
2021/04/15 04:18:57;;;;;;;1.45;1.08;;;;;;;18.18;60.42;103187.63;4952357;28;20039;-73
2021/04/15 04:21:35;;;;;;;1.63;1.00;;;;;;;18.19;60.52;103194.63;4952606;28;20031;-72
2021/04/15 04:24:18;;;;;;;1.70;1.10;;;;;;;18.18;60.15;103187.63;4934808;29;20027;-72
2021/04/15 04:26:55;;;;;;;1.35;1.08;;;;;;;18.18;60.25;103184.97;4952505;28;20035;-72
2021/04/15 04:29:27;;;;;;;2.13;1.30;;;;;;;18.19;60.14;103189.31;4951309;28;20031;-72
2021/04/15 04:31:57;;;;;;;1.75;1.13;;;;;;;18.18;60.25;103184.97;4951675;28;20509;-73
2021/04/15 04:34:24;;;;;;;1.55;1.10;;;;;;;18.18;59.84;103182.31;4951658;28;20059;-72
2021/04/15 04:36:52;;;;;;;2.30;1.27;;;;;;;18.18;60.07;103187.63;4934928;29;20422;-73
2021/04/15 04:39:20;;;;;;;2.40;1.40;;;;;;;18.18;59.86;103188.47;4934034;28;20055;-72
2021/04/15 04:41:59;;;;;;;1.73;1.08;;;;;;;18.17;59.92;103180.63;4944177;29;20487;-72
2021/04/15 04:44:38;;;;;;;1.80;1.30;;;;;;;18.16;59.98;103177.13;4951537;28;20058;-72
2021/04/15 04:47:16;;;;;;;1.63;1.20;;;;;;;18.16;59.82;103178.97;4952075;28;20035;-73
2021/04/15 04:49:45;;;;;;;1.73;1.20;;;;;;;18.17;59.52;103180.63;4951846;28;20031;-73
2021/04/15 04:52:20;;;;;;;2.13;1.10;;;;;;;18.16;59.74;103178.97;4952228;28;20053;-72
2021/04/15 04:54:46;;;;;;;1.77;1.10;;;;;;;18.16;59.45;103181.63;4950921;29;20061;-72
2021/04/15 04:57:20;;;;;;;1.65;1.20;;;;;;;18.15;59.56;103178.13;4934965;29;20035;-73
2021/04/15 04:59:52;;;;;;;2.55;1.35;;;;;;;18.15;59.36;103179.94;4951106;28;20039;-72
2021/04/15 05:02:18;;;;;;;1.88;1.30;;;;;;;18.15;59.51;103174.63;4951512;28;20082;-73
2021/04/15 05:04:44;;;;;;;1.45;1.20;;;;;;;18.15;59.24;103180.78;4950780;28;20420;-73
2021/04/15 05:07:18;;;;;;;2.00;1.20;;;;;;;18.14;59.53;103181.72;4933923;29;20110;-73
2021/04/15 05:09:45;;;;;;;1.50;1.20;;;;;;;18.15;59.33;103179.94;4950274;28;20054;-73
2021/04/15 05:12:27;;;;;;;1.70;1.30;;;;;;;18.13;59.39;103180.03;4920748;29;20066;-73
2021/04/15 05:14:56;;;;;;;1.55;1.20;;;;;;;18.13;59.76;103173.88;4949944;28;20780;-73
2021/04/15 05:17:37;;;;;;;2.20;1.10;;;;;;;18.12;59.40;103182.81;4934142;29;20055;-73
2021/04/15 05:20:13;;;;;;;1.75;1.10;;;;;;;18.13;59.32;103177.38;4949703;28;20047;-73
2021/04/15 05:22:59;;;;;;;1.73;1.20;;;;;;;18.14;59.20;103183.53;4950413;28;20046;-73
2021/04/15 05:25:40;;;;;;;2.20;1.15;;;;;;;18.11;59.28;103184.63;4948393;28;20055;-72
2021/04/15 05:28:14;;;;;;;1.75;1.15;;;;;;;18.12;59.04;103188.13;4923493;29;20039;-72
2021/04/15 05:30:44;;;;;;;1.92;1.23;;;;;;;18.13;59.17;103176.53;4948808;28;20035;-72
2021/04/15 05:33:16;;;;;;;1.58;1.00;;;;;;;18.11;59.08;103181.97;4939823;29;20446;-73
2021/04/15 05:35:47;;;;;;;2.08;1.20;;;;;;;18.12;59.03;103177.50;4951261;29;20090;-73
2021/04/15 05:38:13;;;;;;;2.15;1.20;;;;;;;18.12;59.02;103180.16;4939218;29;20380;-73
2021/04/15 05:40:40;;;;;;;1.75;1.20;;;;;;;18.11;59.08;103181.97;4930186;29;20058;-72
2021/04/15 05:43:37;;;;;;;2.15;1.27;;;;;;;18.08;59.10;103184.06;4931944;29;20027;-72
2021/04/15 05:46:10;;;;;;;1.50;1.00;;;;;;;18.10;59.07;103185.59;4950031;29;20055;-72
2021/04/15 05:48:38;;;;;;;1.67;1.05;;;;;;;18.11;58.74;103192.59;4943468;29;20102;-73
2021/04/15 05:51:15;;;;;;;1.38;1.00;;;;;;;18.10;58.88;103188.25;4932702;29;20035;-72
2021/04/15 05:53:46;;;;;;;1.85;1.10;;;;;;;18.10;59.04;103190.91;4950084;28;20031;-73
2021/04/15 05:56:28;;;;;;;1.55;1.13;;;;;;;18.09;58.85;103196.38;4949353;28;20740;-73
2021/04/15 05:59:22;;;;;;;2.13;1.15;;;;;;;18.06;59.29;103193.97;4950713;29;20035;-72
2021/04/15 06:01:53;;;;;;;1.52;1.10;;;;;;;18.07;59.11;103193.84;4948636;29;20031;-72
2021/04/15 06:04:36;;;;;;;1.67;1.02;;;;;;;18.06;59.55;103193.97;4942507;28;20039;-72
2021/04/15 06:07:05;;;;;;;1.92;1.02;;;;;;;18.08;59.45;103192.03;4948272;28;20027;-72
2021/04/15 06:09:30;;;;;;;1.63;0.90;;;;;;;18.07;59.34;103193.00;4932329;29;20320;-73
2021/04/15 06:11:59;;;;;;;2.05;1.02;;;;;;;18.08;59.24;103192.03;4932569;28;20121;-72
2021/04/15 06:14:36;;;;;;;1.67;0.90;;;;;;;18.07;59.41;103196.50;4950401;28;20486;-73
2021/04/15 06:17:22;;;;;;;1.67;0.90;;;;;;;18.06;59.26;103194.81;4946151;28;20529;-72
2021/04/15 06:19:53;;;;;;;1.55;1.10;;;;;;;18.06;59.56;103194.81;4950282;29;20105;-72
2021/04/15 06:22:24;;;;;;;2.03;1.00;;;;;;;18.05;59.43;103195.78;4949267;28;20039;-72
2021/04/15 06:25:05;;;;;;;1.40;1.10;;;;;;;18.07;59.57;103200.97;4949425;29;20050;-72
2021/04/15 06:27:30;;;;;;;1.40;1.00;;;;;;;18.07;59.36;103198.31;4950086;28;20090;-73
2021/04/15 06:30:13;;;;;;;1.45;0.95;;;;;;;18.06;59.43;103201.94;4933348;29;20078;-73
2021/04/15 06:33:02;;;;;;;1.85;1.00;;;;;;;18.03;59.31;103203.03;4949227;28;20030;-72
2021/04/15 06:35:33;;;;;;;1.90;1.10;;;;;;;18.05;59.19;103203.75;4950855;28;20043;-73
2021/04/15 06:38:25;;;;;;;1.35;1.05;;;;;;;18.04;59.32;103206.53;4949599;28;20035;-72
2021/04/15 06:41:08;;;;;;;1.63;1.10;;;;;;;18.05;59.49;103211.72;4944811;28;20054;-73
2021/04/15 06:43:45;;;;;;;1.90;1.10;;;;;;;18.05;59.22;103213.53;4949701;29;20134;-73
2021/04/15 06:46:32;;;;;;;6.50;1.10;;;;;;;18.03;59.42;103210.16;4948585;28;20065;-71
2021/04/15 06:49:11;;;;;;;3.25;1.30;;;;;;;18.05;59.20;103214.38;4949688;28;20035;-73
2021/04/15 06:51:45;;;;;;;2.38;1.17;;;;;;;18.07;59.26;103211.59;4948015;28;20039;-70
2021/04/15 06:54:39;;;;;;;2.35;1.13;;;;;;;18.06;59.79;103213.41;4946212;28;20052;-71
2021/04/15 06:57:18;;;;;;;1.77;1.00;;;;;;;18.08;59.80;103213.28;4933283;28;20406;-73
2021/04/15 07:00:06;;;;;;;2.38;1.00;;;;;;;18.08;59.86;103210.63;4945598;29;20597;-72
2021/04/15 07:02:41;;;;;;;2.08;1.10;;;;;;;18.11;59.93;103219.16;4950653;29;20043;-71
2021/04/15 07:05:13;;;;;;;2.70;1.10;;;;;;;18.12;60.04;103220.00;4947084;28;20027;-71
2021/04/15 07:07:47;;;;;;;1.80;1.30;;;;;;;18.13;60.33;103219.88;4949197;28;20050;-69
2021/04/15 07:10:16;;;;;;;2.90;1.27;;;;;;;18.13;60.30;103222.53;4948958;28;20069;-70
2021/04/15 07:13:16;;;;;;;3.42;1.60;;;;;;;18.12;60.17;103220.00;4949420;28;20039;-71
2021/04/15 07:16:26;;;;;;;1.75;1.23;;;;;;;18.12;60.20;103220.00;4949511;28;20035;-70
2021/04/15 07:19:17;;;;;;;5.82;1.50;;;;;;;18.14;60.29;103215.41;4948514;28;20479;-70
2021/04/15 07:21:48;;;;;;;4.90;2.30;;;;;;;18.14;59.99;103215.41;4922084;29;20071;-70
2021/04/15 07:24:51;;;;;;;4.63;1.60;;;;;;;18.11;60.42;103219.16;4947708;28;20402;-70
2021/04/15 07:27:16;;;;;;;4.63;1.88;;;;;;;18.15;59.88;103217.13;4949587;28;20125;-65
2021/04/15 07:30:10;;;;;;;6.50;2.22;;;;;;;18.12;60.35;103214.69;4932354;29;20162;-69
2021/04/15 07:33:13;;;;;;;5.53;3.10;;;;;;;18.12;59.81;103217.34;4946876;28;20471;-70
2021/04/15 07:35:58;;;;;;;4.97;3.40;;;;;;;18.12;59.69;103217.34;4948823;28;20491;-71
2021/04/15 07:38:47;;;;;;;5.75;4.00;;;;;;;18.14;59.61;103212.75;4938140;29;20751;-69
2021/04/15 07:41:22;;;;;;;7.15;4.30;;;;;;;18.14;58.85;103215.41;4948635;28;20416;-71
2021/04/15 07:44:30;;;;;;;5.55;4.03;;;;;;;18.10;58.50;103209.50;4950210;28;20043;-69
2021/04/15 07:46:55;;;;;;;8.90;4.18;;;;;;;18.13;58.66;103213.72;4939232;29;20052;-70
2021/04/15 07:49:43;;;;;;;7.32;4.00;;;;;;;18.09;58.43;103213.16;4923458;28;20430;-70
2021/04/15 07:52:16;;;;;;;6.18;4.20;;;;;;;18.11;58.09;103210.34;4949536;29;20483;-70
2021/04/15 07:55:22;;;;;;;9.80;4.15;;;;;;;18.09;58.18;103207.81;4946259;28;20042;-70
2021/04/15 07:57:55;;;;;;;8.80;4.38;;;;;;;18.10;58.38;103208.66;4943765;29;20042;-70
2021/04/15 08:00:39;;;;;;;10.43;5.45;;;;;;;18.11;57.99;103213.00;4938203;28;20375;-69
2021/04/15 08:03:29;;;;;;;10.18;5.20;;;;;;;18.07;57.94;103208.94;4949567;28;20023;-70
2021/04/15 08:06:18;;;;;;;9.40;6.07;;;;;;;18.08;57.35;103207.97;4950139;28;20027;-70
2021/04/15 08:09:02;;;;;;;16.73;9.02;;;;;;;18.06;57.54;103210.75;4934697;29;20458;-71
2021/04/15 08:12:01;;;;;;;27.73;19.23;;;;;;;18.05;57.12;103206.41;4950168;29;20031;-72
2021/04/15 08:14:57;;;;;;;31.15;27.35;;;;;;;18.03;56.73;103204.84;4933968;29;20491;-71
2021/04/15 08:17:34;;;;;;;31.35;26.50;;;;;;;18.02;56.47;103204.03;4951982;29;20541;-71
2021/04/15 08:20:15;;;;;;;31.02;25.33;;;;;;;18.01;56.14;103205.00;4933513;29;20070;-71
2021/04/15 08:23:02;;;;;;;26.55;23.73;;;;;;;18.01;56.52;103206.81;4951561;28;20045;-71
2021/04/15 08:25:52;;;;;;;26.13;21.50;;;;;;;18.01;56.21;103202.34;4950113;28;20035;-73
2021/04/15 08:28:26;;;;;;;26.15;20.92;;;;;;;18.03;56.17;103207.50;4951556;29;20047;-72
2021/04/15 08:31:07;;;;;;;22.48;19.35;;;;;;;18.00;56.35;103207.78;4946431;28;20038;-71
2021/04/15 08:33:48;;;;;;;22.42;18.40;;;;;;;18.00;55.83;103211.28;4944805;28;20107;-72
2021/04/15 08:36:29;;;;;;;21.73;17.27;;;;;;;18.01;56.03;103212.13;4950072;28;20042;-71
2021/04/15 08:39:23;;;;;;;22.13;16.90;;;;;;;18.01;55.83;103214.78;4923555;29;20040;-71
2021/04/15 08:42:22;;;;;;;20.27;16.58;;;;;;;18.00;55.74;103216.59;4941458;28;20049;-72
2021/04/15 08:45:21;;;;;;;23.55;15.52;;;;;;;18.00;55.80;103221.06;4952151;28;20086;-72
2021/04/15 08:48:23;;;;;;;17.35;14.02;;;;;;;17.99;55.50;103214.91;4952038;28;20046;-71
2021/04/15 08:51:03;;;;;;;19.17;13.63;;;;;;;18.01;55.30;103217.44;4952375;29;20138;-72
2021/04/15 08:53:47;;;;;;;17.15;12.68;;;;;;;18.00;55.27;103218.41;4921483;29;20035;-72
2021/04/15 08:56:54;;;;;;;18.42;12.32;;;;;;;17.95;54.89;103219.59;4951036;28;20142;-72
2021/04/15 08:59:41;;;;;;;15.77;12.40;;;;;;;17.98;55.23;103221.16;4884934;29;20399;-71
2021/04/15 09:02:21;;;;;;;15.15;10.63;;;;;;;17.95;54.87;103214.28;4940131;28;20110;-71
2021/04/15 09:05:09;;;;;;;17.80;11.13;;;;;;;17.99;55.01;103222.00;4950705;28;20506;-71
2021/04/15 09:08:16;;;;;;;16.35;10.63;;;;;;;17.96;54.76;103221.28;4952446;28;20035;-71
2021/04/15 09:11:07;;;;;;;13.02;8.90;;;;;;;17.96;54.95;103223.94;4939839;29;20047;-71
2021/04/15 09:13:52;;;;;;;11.90;9.32;;;;;;;17.99;54.57;103222.00;4951391;28;20031;-73
2021/04/15 09:16:27;;;;;;;;;;;;;;;17.94;54.53;103233.84;4952408;29;20082;-71
2021/04/15 09:18:58;;;;;;;13.10;8.50;;;;;;;17.98;54.41;103234.44;4950666;28;19925;-71
2021/04/15 09:21:26;;;;;;;12.32;8.63;;;;;;;17.99;54.66;103235.28;4952293;29;20047;-72
2021/04/15 09:24:24;;;;;;;11.50;8.65;;;;;;;17.96;54.44;103231.91;4930543;29;20494;-71
2021/04/15 09:27:16;;;;;;;12.27;8.40;;;;;;;17.95;54.22;103232.03;4951415;28;20035;-71
2021/04/15 09:30:11;;;;;;;11.15;8.40;;;;;;;17.96;54.14;103236.38;4934274;29;20054;-71
2021/04/15 09:32:59;;;;;;;11.30;8.00;;;;;;;17.97;53.90;103232.75;4950579;28;20034;-71
2021/04/15 09:35:43;;;;;;;13.15;8.50;;;;;;;17.96;53.95;103233.72;4950915;29;20058;-71
2021/04/15 09:39:03;;;;;;;10.43;7.63;;;;;;;17.93;54.03;103239.28;4949237;28;20031;-72
2021/04/15 09:41:49;;;;;;;11.15;7.43;;;;;;;17.93;53.91;103226.00;4853822;29;20070;-71
2021/04/15 09:44:33;;;;;;;9.90;6.95;;;;;;;17.91;53.88;103231.47;4950101;28;20042;-71
2021/04/15 09:47:23;;;;;;;8.18;6.90;;;;;;;17.93;53.64;103221.53;4940854;29;20058;-71
2021/04/15 09:49:59;;;;;;;8.48;6.40;;;;;;;17.93;53.53;103221.53;4932785;29;20064;-72
2021/04/15 09:52:54;;;;;;;10.20;6.65;;;;;;;17.92;53.53;103225.16;4951759;29;20038;-71
2021/04/15 09:56:01;;;;;;;8.75;6.40;;;;;;;17.92;53.42;103225.16;4938078;28;20432;-71
2021/04/15 09:58:35;;;;;;;9.88;6.82;;;;;;;17.93;53.48;103234.81;4948481;28;20051;-70
2021/04/15 10:01:12;;;;;;;9.43;6.97;;;;;;;17.92;53.30;103230.47;4951536;29;20059;-72
2021/04/15 10:04:08;;;;;;;10.32;6.57;;;;;;;17.90;53.44;103229.78;4950244;28;20743;-71
2021/04/15 10:06:38;;;;;;;10.68;6.75;;;;;;;17.92;53.09;103225.16;4932784;29;20443;-72
2021/04/15 10:09:22;;;;;;;8.43;6.25;;;;;;;17.93;53.37;103226.84;4950228;28;20041;-72
2021/04/15 10:11:50;;;;;;;8.73;6.50;;;;;;;17.92;53.11;103219.88;4950635;28;20169;-71
2021/04/15 10:14:46;;;;;;;9.75;7.25;;;;;;;17.91;53.04;103218.19;4933586;29;20118;-71
2021/04/15 10:17:21;;;;;;;8.07;6.45;;;;;;;17.91;53.29;103228.81;4932599;29;20165;-71
2021/04/15 10:20:07;;;;;;;8.32;6.18;;;;;;;17.89;53.20;103220.13;4951269;29;20073;-71
2021/04/15 10:23:03;;;;;;;8.32;6.20;;;;;;;17.91;53.09;103225.31;4933893;29;20407;-71
2021/04/15 10:25:40;;;;;;;9.32;6.57;;;;;;;17.91;52.70;103217.34;4949375;28;20073;-71
2021/04/15 10:28:08;;;;;;;10.75;6.97;;;;;;;17.90;52.88;103221.81;4950473;28;20038;-71
2021/04/15 10:31:04;;;;;;;9.30;6.43;;;;;;;17.88;52.69;103214.94;4931650;28;20139;-71
2021/04/15 10:33:48;;;;;;;8.82;6.60;;;;;;;17.90;52.42;103218.31;4950597;29;20479;-69
2021/04/15 10:36:45;;;;;;;8.02;6.43;;;;;;;17.84;52.14;103219.66;4948737;28;20058;-71
2021/04/15 10:39:41;;;;;;;9.15;6.47;;;;;;;17.84;52.17;103214.34;4948810;28;20045;-71
2021/04/15 10:42:29;;;;;;;9.60;6.80;;;;;;;17.84;52.17;103214.34;4910878;29;20051;-71
2021/04/15 10:45:00;;;;;;;8.68;6.88;;;;;;;17.84;52.23;103216.19;4948793;28;20534;-71
2021/04/15 10:48:17;;;;;;;10.00;7.57;;;;;;;17.79;51.91;103216.53;4949845;28;20502;-71
2021/04/15 10:50:58;;;;;;;9.35;6.70;;;;;;;17.80;52.04;103198.78;4908367;29;20039;-71
2021/04/15 10:53:48;;;;;;;9.45;7.97;;;;;;;17.76;51.68;103206.16;4948831;29;20126;-71
2021/04/15 10:56:23;;;;;;;11.65;7.28;;;;;;;17.78;51.42;103200.72;4949504;28;20031;-71
2021/04/15 10:58:55;;;;;;;9.25;7.43;;;;;;;17.78;51.27;103195.41;4932487;29;20359;-71
2021/04/15 11:01:30;;;;;;;10.85;7.65;;;;;;;17.77;51.05;103199.03;4950006;28;20031;-71
2021/04/15 11:03:59;;;;;;;10.77;8.23;;;;;;;17.76;51.16;103198.22;4950483;29;20050;-71
2021/04/15 11:06:39;;;;;;;9.65;7.18;;;;;;;17.73;50.78;103195.81;4949812;28;20050;-72
2021/04/15 11:09:36;;;;;;;10.40;7.90;;;;;;;17.70;50.78;103188.09;4938814;29;20031;-72
2021/04/15 11:12:07;;;;;;;12.07;7.93;;;;;;;17.72;50.98;103190.63;4864086;28;20043;-71
2021/04/15 11:14:38;;;;;;;12.32;8.50;;;;;;;17.70;50.50;103190.75;4949385;28;20082;-71
2021/04/15 11:17:16;;;;;;;12.05;7.85;;;;;;;17.67;50.40;103189.16;4949687;29;20035;-72
2021/04/15 11:19:42;;;;;;;11.32;8.40;;;;;;;17.67;50.53;103183.00;4950394;28;20028;-71
2021/04/15 11:22:31;;;;;;;14.30;9.32;;;;;;;17.64;50.24;103180.59;4949908;29;20039;-71
2021/04/15 11:25:24;;;;;;;12.75;9.38;;;;;;;17.62;50.08;103178.06;4932196;29;20488;-71
2021/04/15 11:27:50;;;;;;;11.85;9.18;;;;;;;17.63;50.56;103178.91;4949690;29;20066;-71
2021/04/15 11:30:42;;;;;;;13.15;9.13;;;;;;;17.59;50.28;103173.03;4932564;29;20086;-71
2021/04/15 11:33:10;;;;;;;10.50;9.40;;;;;;;17.61;50.25;103175.53;4932801;29;20035;-71
2021/04/15 11:35:35;;;;;;;11.88;8.70;;;;;;;17.61;50.26;103172.91;4950079;28;20041;-71
2021/04/15 11:38:21;;;;;;;15.57;8.98;;;;;;;17.58;49.82;103174.00;4949031;28;20459;-72
2021/04/15 11:40:52;;;;;;;11.38;9.43;;;;;;;17.60;49.81;103181.81;4933248;29;20386;-71
2021/04/15 11:43:27;;;;;;;13.07;9.45;;;;;;;17.60;49.63;103173.84;4953013;29;20394;-71
2021/04/15 11:45:56;;;;;;;12.85;10.13;;;;;;;17.58;49.67;103178.47;4953649;28;20077;-71
2021/04/15 11:48:29;;;;;;;12.02;9.25;;;;;;;17.59;49.15;103174.84;4953473;29;20132;-71
2021/04/15 11:51:21;;;;;;;13.75;10.23;;;;;;;17.56;48.94;103175.09;4953331;28;20046;-71
2021/04/15 11:53:55;;;;;;;12.45;9.85;;;;;;;17.56;49.17;103164.47;4941668;28;20575;-71
2021/04/15 11:56:24;;;;;;;13.60;10.00;;;;;;;17.57;49.28;103171.47;4952102;28;20035;-71
2021/04/15 11:58:51;;;;;;;13.90;8.82;;;;;;;17.56;49.16;103165.31;4953501;28;20082;-71
2021/04/15 12:01:30;;;;;;;12.35;9.95;;;;;;;17.58;49.05;103173.16;4935746;29;20047;-71
2021/04/15 12:04:00;;;;;;;12.40;9.27;;;;;;;17.57;49.28;103163.50;4952846;29;20035;-72
2021/04/15 12:06:40;;;;;;;12.10;9.27;;;;;;;17.57;49.11;103166.16;4953232;28;20039;-71
2021/04/15 12:09:11;;;;;;;11.57;9.05;;;;;;;17.57;48.93;103167.00;4924362;29;20452;-71
2021/04/15 12:11:48;;;;;;;9.80;8.68;;;;;;;17.58;48.83;103165.19;4952477;28;20039;-71